Airfield :
LOGIN :

Register | Disclaimer

   EN    FR    IT 

 










Legend :    VFR   Marginal VFR   IFR   Intensive IFR   Very Intensive IFR
Visi :
Ceiling :
>= 8 km
>= 3000ft
5 to 8 km
1000 to 3000 ft
1500m to 5 km
500 to 1000 ft
800 to 1500m
200 to 500 ft
< 800m
< 200 ft
Symbols :   Thunderstorms  Fog  Heavy snow  Heavy precipitations  Wind > 20 kt
SIGMETs :     Misc.  Thunderstorms  Icing  Turbulence  Mountain Waves  Volcanic Ashes







- Airport Elevation : 505 ft
- IATA code : SXB
- Download approach charts


LFST - Strasbourg

CURRENT METAR :
  • 100830Z AUTO 28007KT 9999 FEW033 BKN054 07/02 Q1024 TEMPO FEW025TCU SCT030

EXPIRED METARs :
  • 100800Z AUTO 29007KT 9999 BKN032 BKN056 06/02 Q1023 TEMPO FEW025TCU SCT030
  • 100730Z AUTO 26004KT 230V300 9999 BKN032/// BKN040/// BKN046/// ///TCU 06/03 Q1023 NOSIG
  • 100700Z AUTO 26005KT 9999 SCT029 BKN034 BKN048 06/02 Q1023 TEMPO FEW025TCU SCT030
  • 100630Z AUTO 25005KT 220V280 9999 BKN032 BKN042 OVC056 06/02 Q1023 TEMPO FEW025TCU SCT030
  • 100600Z AUTO 27004KT 9999 SCT036 SCT048 BKN060 06/02 Q1023 NOSIG

TAF TAF LFST
Valid from the 10 at 06:00 until the 11 at 06:00 UTC


100501Z 1006/1106 29011KT 9999 SCT025 BKN050
TEMPO 1008/1014 FEW025TCU SCT030
TEMPO 1102/1106 23005KT
No reported NOTAMs for that airfield.



MET'MAP, your aeronautical weather chart ! - Copyright ORBIFLY December 2007 - Disclaimer

ORBIFLY MET'MAP TEAM :

Programming & Development : Alexandra Zaïnal
Concept & Development : Baudouin d'Aumeries
Co-Development & Prog : Marc-Olivier Méhu
Technical & hardware support : Manuel Goepfert

Contact : metmap@orbifly.com




SOURCES & CREDITS :

   NOAA